Time;durP1;ratioP1;P1;durP2;ratioP2;P2;SDS_P1;SDS_P2;PMS_P1;PMS_P2;Temp;Humidity;BMP_temperature;BMP_pressure;BME280_temperature;BME280_humidity;BME280_pressure;Samples;Min_cycle;Max_cycle;Signal;HPM_P1;HPM_P2
2021/08/06 00:01:00;;;;;;;7.80;7.10;;;;;;;13.67;79.02;99843.56;5037940;28;20331;-83
2021/08/06 00:03:28;;;;;;;8.37;7.57;;;;;;;13.61;80.00;99836.09;5056369;28;20205;-83
2021/08/06 00:05:56;;;;;;;8.83;7.80;;;;;;;13.59;80.85;99835.38;5044911;28;20321;-83
2021/08/06 00:08:23;;;;;;;9.50;8.63;;;;;;;13.57;80.95;99832.84;5036758;28;20385;-83
2021/08/06 00:10:50;;;;;;;10.97;9.10;;;;;;;13.58;81.48;99831.84;5036550;28;20260;-82
2021/08/06 00:13:17;;;;;;;9.43;8.57;;;;;;;13.60;81.73;99840.59;5036720;28;20206;-83
2021/08/06 00:15:43;;;;;;;9.77;8.70;;;;;;;13.65;82.40;99830.31;5036158;28;20711;-84
2021/08/06 00:18:10;;;;;;;9.60;8.70;;;;;;;13.71;82.68;99828.94;5034904;28;20356;-84
2021/08/06 00:20:37;;;;;;;8.57;7.87;;;;;;;13.76;82.52;99829.38;5043212;28;20209;-82
2021/08/06 00:23:05;;;;;;;9.07;8.27;;;;;;;13.81;82.42;99825.28;5031801;28;20208;-82
2021/08/06 00:25:31;;;;;;;8.80;8.00;;;;;;;13.85;82.38;99823.19;5035965;28;20195;-82
2021/08/06 00:27:59;;;;;;;8.13;7.33;;;;;;;13.88;82.43;99820.22;5047761;28;20288;-84
2021/08/06 00:30:26;;;;;;;7.90;7.20;;;;;;;13.85;81.26;99826.69;5031038;28;20298;-84
2021/08/06 00:32:52;;;;;;;8.00;7.20;;;;;;;13.78;80.72;99822.91;5043129;28;20635;-81
2021/08/06 00:35:19;;;;;;;7.67;6.97;;;;;;;13.70;80.37;99828.06;5034937;28;20810;-82
2021/08/06 00:37:46;;;;;;;8.37;7.67;;;;;;;13.62;80.31;99829.72;5035745;28;20281;-82
2021/08/06 00:40:15;;;;;;;8.53;7.73;;;;;;;13.54;80.73;99822.41;5026945;22;20245;-73
2021/08/06 00:42:42;;;;;;;9.53;8.13;;;;;;;13.51;81.34;99825.34;5010932;28;20563;-73
2021/08/06 00:45:09;;;;;;;9.37;8.20;;;;;;;13.48;81.32;99818.44;5011932;28;20203;-73
2021/08/06 00:47:37;;;;;;;11.40;8.00;;;;;;;13.47;81.71;99815.88;5005906;28;20215;-73
2021/08/06 00:50:04;;;;;;;9.80;8.73;;;;;;;13.47;81.77;99810.53;4986994;28;20206;-73
2021/08/06 00:52:32;;;;;;;10.33;9.33;;;;;;;13.47;82.30;99802.50;5018808;22;21009;-76
2021/08/06 00:54:59;;;;;;;10.30;9.30;;;;;;;13.48;82.24;99804.22;5028947;28;20206;-76
2021/08/06 00:57:26;;;;;;;10.23;9.30;;;;;;;13.48;82.22;99801.53;5027289;28;20202;-76
2021/08/06 00:59:53;;;;;;;11.17;9.37;;;;;;;13.47;82.36;99805.19;5032362;28;20233;-76
2021/08/06 01:02:22;;;;;;;10.70;9.60;;;;;;;13.47;82.66;99802.50;5030935;28;20217;-76
2021/08/06 01:04:55;;;;;;;9.97;8.97;;;;;;;13.43;82.72;99801.97;5015116;28;20214;-76
2021/08/06 01:07:25;;;;;;;10.70;9.07;;;;;;;13.43;82.46;99798.44;5022859;28;20206;-76
2021/08/06 01:09:56;;;;;;;11.13;9.40;;;;;;;13.43;82.51;99798.44;5009547;28;20682;-77
2021/08/06 01:12:27;;;;;;;10.67;9.30;;;;;;;13.44;82.73;99800.09;5006787;28;20207;-79
2021/08/06 01:15:00;;;;;;;8.50;7.80;;;;;;;13.42;82.42;99802.94;5005334;28;20694;-76
2021/08/06 01:17:30;;;;;;;8.40;7.10;;;;;;;13.39;82.44;99802.38;5019141;28;20583;-75
2021/08/06 01:20:02;;;;;;;10.20;8.97;;;;;;;13.35;82.22;99800.94;5014439;28;20698;-74
2021/08/06 01:22:39;;;;;;;9.60;8.70;;;;;;;13.31;82.55;99795.00;5018037;28;20203;-73
2021/08/06 01:25:08;;;;;;;11.07;10.07;;;;;;;13.27;82.59;99796.25;5009385;28;20213;-74
2021/08/06 01:27:39;;;;;;;10.80;9.80;;;;;;;13.25;82.85;99800.91;5019671;28;20572;-78
2021/08/06 01:30:07;;;;;;;11.63;10.43;;;;;;;13.25;82.78;99805.41;5008559;28;20215;-76
2021/08/06 01:32:34;;;;;;;10.90;9.90;;;;;;;13.24;82.95;99801.91;5016702;28;20226;-77
2021/08/06 01:35:01;;;;;;;11.07;10.07;;;;;;;13.24;82.87;99791.19;5016855;28;20206;-75
2021/08/06 01:37:27;;;;;;;10.37;9.47;;;;;;;13.25;83.33;99794.72;5010473;28;20203;-76
2021/08/06 01:39:54;;;;;;;11.13;10.13;;;;;;;13.25;83.36;99790.22;5013064;28;20201;-75
2021/08/06 01:42:30;;;;;;;10.03;9.00;;;;;;;13.27;82.74;99790.06;5011275;28;20205;-75
2021/08/06 01:44:58;;;;;;;9.00;8.20;;;;;;;13.24;82.62;99785.84;5012153;28;20289;-75
2021/08/06 01:47:30;;;;;;;7.23;6.53;;;;;;;13.17;81.14;99790.03;5007734;28;20692;-76
2021/08/06 01:49:59;;;;;;;8.27;7.20;;;;;;;13.05;80.43;99794.59;5011600;28;20230;-76
2021/08/06 01:52:28;;;;;;;7.93;6.77;;;;;;;12.95;80.46;99795.50;5015503;28;20234;-75
2021/08/06 01:54:59;;;;;;;8.37;7.57;;;;;;;12.87;80.93;99790.84;5012125;28;20243;-76
2021/08/06 01:57:27;;;;;;;9.53;8.70;;;;;;;12.88;81.66;99797.03;5016073;28;20207;-75
2021/08/06 01:59:55;;;;;;;8.47;7.67;;;;;;;12.88;81.64;99789.88;5012877;28;20194;-76
2021/08/06 02:02:23;;;;;;;9.00;8.17;;;;;;;12.87;81.67;99793.53;5015596;28;20239;-76
2021/08/06 02:04:50;;;;;;;9.13;8.33;;;;;;;12.86;81.84;99787.34;5014452;28;20216;-76
2021/08/06 02:07:17;;;;;;;9.67;8.77;;;;;;;12.89;82.09;99786.22;5007731;28;20211;-75
2021/08/06 02:09:45;;;;;;;8.07;7.37;;;;;;;12.91;81.99;99778.03;5011895;28;20232;-76
2021/08/06 02:12:12;;;;;;;9.33;8.20;;;;;;;12.88;81.85;99784.53;5017339;28;20214;-75
2021/08/06 02:14:39;;;;;;;10.53;8.40;;;;;;;12.87;81.93;99780.16;5021164;28;20208;-76
2021/08/06 02:17:07;;;;;;;9.77;8.23;;;;;;;12.84;81.87;99786.63;5013865;28;20569;-76
2021/08/06 02:19:36;;;;;;;11.53;9.27;;;;;;;12.82;82.08;99788.56;5022657;28;20289;-75
2021/08/06 02:22:05;;;;;;;8.93;7.83;;;;;;;12.81;82.04;99784.19;5014663;28;20211;-75
2021/08/06 02:24:34;;;;;;;9.57;8.10;;;;;;;12.79;82.02;99791.50;5018413;28;20234;-75
2021/08/06 02:27:03;;;;;;;10.20;9.20;;;;;;;12.76;82.07;99794.44;5011216;28;20746;-73
2021/08/06 02:29:30;;;;;;;10.00;9.13;;;;;;;12.73;82.29;99807.19;5016742;28;20240;-76
2021/08/06 02:31:59;;;;;;;10.53;9.60;;;;;;;12.71;82.47;99795.81;5010542;28;20208;-75
2021/08/06 02:34:27;;;;;;;12.27;11.17;;;;;;;12.73;82.66;99789.34;5016895;28;20228;-75
2021/08/06 02:36:55;;;;;;;13.07;11.83;;;;;;;12.76;83.43;99797.09;5023016;28;20837;-76
2021/08/06 02:39:26;;;;;;;14.20;12.00;;;;;;;12.82;83.87;99795.75;5006507;28;20210;-75
2021/08/06 02:41:55;;;;;;;13.00;11.80;;;;;;;12.86;83.83;99791.81;5004845;28;20203;-77
2021/08/06 02:44:22;;;;;;;12.83;11.70;;;;;;;12.91;83.89;99792.25;5009580;28;20717;-74
2021/08/06 02:46:48;;;;;;;13.33;10.83;;;;;;;12.95;84.12;99788.34;5008529;28;20211;-74
2021/08/06 02:49:15;;;;;;;11.90;10.80;;;;;;;12.98;83.82;99793.44;5008153;28;20222;-74
2021/08/06 02:51:41;;;;;;;12.17;10.93;;;;;;;13.00;83.47;99794.16;5013807;28;20203;-74
2021/08/06 02:54:09;;;;;;;9.97;9.10;;;;;;;13.00;83.23;99785.28;5008126;28;20729;-74
2021/08/06 02:56:36;;;;;;;10.13;9.13;;;;;;;12.96;82.66;99778.50;5008133;28;20203;-74
2021/08/06 02:59:03;;;;;;;9.97;8.93;;;;;;;12.88;82.26;99779.19;5012392;28;20202;-75
2021/08/06 03:01:29;;;;;;;11.03;9.93;;;;;;;12.82;82.47;99788.56;5012821;28;20389;-75
2021/08/06 03:03:56;;;;;;;9.97;9.07;;;;;;;12.78;82.43;99786.28;5014494;28;20238;-74
2021/08/06 03:06:22;;;;;;;11.63;9.60;;;;;;;12.75;82.62;99786.53;5010092;28;20581;-74
2021/08/06 03:08:49;;;;;;;11.43;10.20;;;;;;;12.70;82.78;99775.44;5008603;28;20213;-74
2021/08/06 03:11:17;;;;;;;12.23;11.03;;;;;;;12.68;82.98;99785.41;5018370;28;20210;-75
2021/08/06 03:13:43;;;;;;;12.73;11.53;;;;;;;12.66;82.63;99774.00;5014834;28;20222;-74
2021/08/06 03:16:10;;;;;;;12.70;11.50;;;;;;;12.63;83.16;99772.41;5015515;28;20932;-75
2021/08/06 03:18:37;;;;;;;17.00;11.60;;;;;;;12.65;83.81;99772.28;5018791;28;20209;-75
2021/08/06 03:21:04;;;;;;;11.30;10.30;;;;;;;12.67;83.75;99773.88;5019387;28;20214;-74
2021/08/06 03:23:31;;;;;;;11.00;9.90;;;;;;;12.65;83.01;99770.47;5010755;28;20223;-74
2021/08/06 03:25:57;;;;;;;10.63;9.60;;;;;;;12.60;82.89;99771.84;5010027;28;20661;-75
2021/08/06 03:28:25;;;;;;;10.07;9.07;;;;;;;12.53;82.94;99766.19;5011202;28;20210;-76
2021/08/06 03:30:53;;;;;;;9.97;9.07;;;;;;;12.47;83.10;99767.53;5007081;28;20222;-76
2021/08/06 03:33:19;;;;;;;10.23;9.33;;;;;;;12.42;83.48;99759.06;5015511;28;20894;-74
2021/08/06 03:35:46;;;;;;;11.77;10.60;;;;;;;12.42;83.72;99763.56;5008511;28;20203;-75
2021/08/06 03:38:14;;;;;;;11.77;10.67;;;;;;;12.42;83.72;99756.41;5020097;28;20206;-75
2021/08/06 03:40:41;;;;;;;11.57;10.43;;;;;;;12.42;84.00;99756.41;5010633;28;20684;-75
2021/08/06 03:43:07;;;;;;;13.70;10.70;;;;;;;12.44;84.06;99756.28;5018767;28;20230;-75
2021/08/06 03:45:35;;;;;;;13.80;12.50;;;;;;;12.45;84.61;99749.97;5019331;28;20591;-75
2021/08/06 03:48:02;;;;;;;11.77;10.67;;;;;;;12.48;84.46;99752.38;5005927;28;20206;-74
2021/08/06 03:50:28;;;;;;;10.17;9.27;;;;;;;12.50;83.95;99756.59;5019984;28;20230;-75
2021/08/06 03:52:55;;;;;;;8.17;7.37;;;;;;;12.46;83.33;99746.31;5015261;28;20243;-75
2021/08/06 03:55:21;;;;;;;8.70;8.00;;;;;;;12.35;82.51;99741.91;5020185;28;20223;-74
2021/08/06 03:57:49;;;;;;;13.67;8.77;;;;;;;12.24;82.17;99744.63;5016973;28;20207;-75
2021/08/06 04:00:17;;;;;;;10.50;9.50;;;;;;;12.14;82.40;99744.56;5015341;28;20675;-75
2021/08/06 04:02:45;;;;;;;12.07;10.97;;;;;;;12.08;82.59;99741.53;5014340;28;20588;-74
2021/08/06 04:05:12;;;;;;;11.63;10.53;;;;;;;12.03;83.23;99727.72;5019085;28;20202;-75
2021/08/06 04:07:42;;;;;;;12.60;11.00;;;;;;;12.02;83.33;99736.72;5018010;28;20204;-75
2021/08/06 04:10:09;;;;;;;12.43;11.13;;;;;;;11.99;83.54;99737.00;5014925;28;20227;-74
2021/08/06 04:12:36;;;;;;;11.47;10.37;;;;;;;11.96;83.73;99730.09;5015568;28;20229;-75
2021/08/06 04:15:03;;;;;;;11.57;10.43;;;;;;;11.95;83.64;99725.72;5018275;28;20219;-76
2021/08/06 04:17:29;;;;;;;10.90;9.70;;;;;;;11.96;84.13;99718.56;5015780;28;20224;-75
2021/08/06 04:19:57;;;;;;;12.60;11.30;;;;;;;11.97;84.35;99707.75;5016560;28;20208;-74
2021/08/06 04:22:24;;;;;;;11.43;10.40;;;;;;;12.02;84.68;99723.38;5022104;28;20587;-75
2021/08/06 04:24:50;;;;;;;12.53;11.37;;;;;;;12.07;84.84;99721.16;5016242;28;20208;-75
2021/08/06 04:27:17;;;;;;;13.60;12.27;;;;;;;12.11;85.24;99725.28;5022506;28;20551;-75
2021/08/06 04:29:43;;;;;;;15.10;13.60;;;;;;;12.20;85.52;99727.16;5013773;28;20736;-76
2021/08/06 04:32:10;;;;;;;16.43;14.83;;;;;;;12.31;86.10;99731.59;5017526;28;20221;-76
2021/08/06 04:34:37;;;;;;;18.00;16.17;;;;;;;12.44;86.66;99740.25;5019039;28;20203;-75
2021/08/06 04:37:05;;;;;;;18.53;16.60;;;;;;;12.59;87.04;99746.94;5026970;28;20218;-74
2021/08/06 04:39:31;;;;;;;18.20;16.23;;;;;;;12.75;86.98;99735.78;5022292;28;20208;-72
2021/08/06 04:41:58;;;;;;;17.27;15.47;;;;;;;12.87;87.29;99740.06;5025192;28;20211;-74
2021/08/06 04:44:24;;;;;;;17.63;15.80;;;;;;;12.98;87.13;99734.63;5017830;28;20711;-76
2021/08/06 04:46:51;;;;;;;14.97;13.50;;;;;;;13.09;86.97;99733.66;5011593;28;20211;-76
2021/08/06 04:49:17;;;;;;;14.23;12.80;;;;;;;13.14;86.03;99728.78;5024816;28;20588;-75
2021/08/06 04:51:44;;;;;;;14.57;12.20;;;;;;;13.13;85.14;99724.41;5015253;28;20214;-75
2021/08/06 04:54:12;;;;;;;14.33;12.43;;;;;;;13.13;85.31;99727.06;5022094;28;20241;-75
2021/08/06 04:56:40;;;;;;;14.57;13.03;;;;;;;13.14;85.42;99724.28;5014145;28;20202;-74
2021/08/06 04:59:07;;;;;;;14.50;13.10;;;;;;;13.18;86.00;99725.72;5017505;28;20659;-74
2021/08/06 05:01:33;;;;;;;15.37;13.93;;;;;;;13.24;86.01;99720.84;5016175;28;20588;-75
2021/08/06 05:04:00;;;;;;;16.60;14.90;;;;;;;13.31;86.42;99711.25;5012811;28;20233;-75
2021/08/06 05:06:26;;;;;;;15.70;14.20;;;;;;;13.40;86.21;99718.47;5023014;28;20198;-77
2021/08/06 05:08:53;;;;;;;15.13;13.63;;;;;;;13.49;86.80;99722.97;5010967;28;20202;-76
2021/08/06 05:11:20;;;;;;;15.47;13.87;;;;;;;13.60;86.97;99709.50;5018300;28;20597;-75
2021/08/06 05:13:47;;;;;;;17.13;15.53;;;;;;;13.73;87.04;99711.91;5024108;28;20229;-74
2021/08/06 05:16:14;;;;;;;16.80;15.10;;;;;;;13.86;87.38;99713.31;5011948;28;20214;-74
2021/08/06 05:18:40;;;;;;;16.27;14.63;;;;;;;14.03;87.46;99713.56;5020762;28;20211;-75
2021/08/06 05:21:07;;;;;;;16.30;14.60;;;;;;;14.17;87.47;99713.13;5016806;28;20660;-75
2021/08/06 05:23:33;;;;;;;16.17;14.73;;;;;;;14.31;87.52;99718.06;5009578;28;20231;-75
2021/08/06 05:26:00;;;;;;;14.47;13.07;;;;;;;14.45;86.85;99700.72;5021468;28;20297;-75
2021/08/06 05:28:28;;;;;;;14.87;13.00;;;;;;;14.61;87.14;99710.84;5015937;28;20664;-75
2021/08/06 05:30:54;;;;;;;18.80;13.33;;;;;;;14.75;86.80;99713.88;5009089;28;20618;-75
2021/08/06 05:33:21;;;;;;;15.17;12.87;;;;;;;14.88;86.67;99710.88;5007927;28;20234;-75
2021/08/06 05:35:48;;;;;;;13.03;11.67;;;;;;;14.99;86.03;99710.69;5001249;28;20217;-74
2021/08/06 05:38:14;;;;;;;12.67;11.50;;;;;;;15.10;85.40;99704.28;5020233;28;20212;-76
2021/08/06 05:40:42;;;;;;;12.50;11.37;;;;;;;15.21;85.26;99715.69;5016099;28;20195;-75
2021/08/06 05:43:08;;;;;;;13.43;12.13;;;;;;;15.30;85.16;99711.22;5014511;28;20233;-75
2021/08/06 05:45:36;;;;;;;11.97;10.97;;;;;;;15.43;84.99;99708.19;5012263;28;20234;-77
2021/08/06 05:48:03;;;;;;;11.23;10.23;;;;;;;15.60;85.01;99704.72;5015146;28;20217;-74
2021/08/06 05:50:30;;;;;;;10.60;9.60;;;;;;;15.77;84.87;99706.56;5018552;28;20310;-74
2021/08/06 05:52:56;;;;;;;10.30;9.40;;;;;;;15.96;84.55;99698.34;5008575;28;20238;-75
2021/08/06 05:55:23;;;;;;;12.30;10.23;;;;;;;16.18;84.20;99702.41;5023106;28;20233;-75
2021/08/06 05:57:49;;;;;;;10.43;9.53;;;;;;;16.39;83.65;99707.44;5014419;28;20243;-75
2021/08/06 06:00:17;;;;;;;10.13;9.23;;;;;;;16.82;84.22;99700.34;5008465;28;20214;-75
2021/08/06 06:02:45;;;;;;;9.50;8.50;;;;;;;17.75;85.31;99685.00;5017019;28;20232;-75
2021/08/06 06:05:12;;;;;;;7.53;6.93;;;;;;;18.85;81.83;99689.84;5015115;28;20209;-74
2021/08/06 06:07:45;;;;;;;7.20;6.50;;;;;;;20.02;78.13;99692.44;5012196;28;20641;-76
2021/08/06 06:10:12;;;;;;;6.93;5.60;;;;;;;21.09;73.05;99685.81;5016167;28;20607;-78
2021/08/06 06:12:39;;;;;;;6.83;5.33;;;;;;;22.05;68.76;99687.34;5007134;28;20228;-75
2021/08/06 06:15:07;;;;;;;5.20;4.73;;;;;;;22.84;62.03;99680.72;5015184;28;20213;-76
2021/08/06 06:17:33;;;;;;;5.43;4.83;;;;;;;23.61;60.08;99678.78;5018317;28;20211;-75
2021/08/06 06:20:01;;;;;;;5.53;4.68;;;;;;;24.30;57.45;99673.91;5011050;28;20561;-75
2021/08/06 06:22:27;;;;;;;5.13;3.80;;;;;;;24.91;55.71;99671.69;5007213;28;20211;-75
2021/08/06 06:24:54;;;;;;;4.35;3.95;;;;;;;25.46;53.28;99665.88;5003541;28;20210;-75
2021/08/06 06:27:20;;;;;;;4.38;3.95;;;;;;;25.91;50.85;99672.16;5001525;28;20210;-76
2021/08/06 06:29:47;;;;;;;3.92;3.63;;;;;;;26.36;49.61;99683.78;5018540;28;20220;-75
2021/08/06 06:32:14;;;;;;;4.10;3.80;;;;;;;26.75;48.38;99679.03;5008789;28;20906;-76
2021/08/06 06:34:40;;;;;;;3.40;3.10;;;;;;;26.91;45.66;99682.00;5001628;28;20206;-75
2021/08/06 06:37:08;;;;;;;3.45;3.25;;;;;;;27.06;45.96;99681.66;5010695;28;21756;-74
2021/08/06 06:39:35;;;;;;;3.85;3.45;;;;;;;27.17;44.58;99680.91;5010809;28;20231;-74
2021/08/06 06:42:01;;;;;;;3.67;3.30;;;;;;;27.19;44.73;99680.69;5006818;28;20208;-75
2021/08/06 06:44:28;;;;;;;3.45;3.15;;;;;;;27.25;45.17;99677.88;5006848;28;20226;-77
2021/08/06 06:46:54;;;;;;;3.63;3.33;;;;;;;27.47;44.88;99670.00;5003198;28;20210;-74
2021/08/06 06:49:21;;;;;;;3.75;3.40;;;;;;;27.71;44.29;99671.00;5006007;28;20202;-74
2021/08/06 06:51:47;;;;;;;5.50;3.55;;;;;;;27.99;43.68;99676.66;5006147;28;20230;-76
2021/08/06 06:54:15;;;;;;;3.70;3.38;;;;;;;28.31;42.86;99677.22;5020485;22;20222;-86
2021/08/06 06:56:42;;;;;;;3.60;3.03;;;;;;;28.28;41.70;99676.91;5012362;28;20293;-86
2021/08/06 06:59:08;;;;;;;3.80;3.45;;;;;;;28.07;41.57;99678.25;5013743;28;20759;-79
2021/08/06 07:01:35;;;;;;;4.45;3.58;;;;;;;28.07;42.86;99675.50;5017462;28;20222;-82
2021/08/06 07:04:01;;;;;;;4.40;3.55;;;;;;;28.21;42.73;99671.50;5013184;28;20302;-85
2021/08/06 07:06:28;;;;;;;3.42;3.13;;;;;;;28.38;42.60;99674.41;5015385;28;20859;-83
2021/08/06 07:08:55;;;;;;;13.32;3.83;;;;;;;28.68;42.34;99674.28;5015960;28;20306;-82
2021/08/06 07:11:23;;;;;;;3.60;3.28;;;;;;;28.86;40.56;99657.75;5015413;28;20313;-81
2021/08/06 07:13:49;;;;;;;3.25;2.95;;;;;;;29.14;40.83;99661.66;5018214;28;20238;-84
2021/08/06 07:16:16;;;;;;;3.72;2.92;;;;;;;28.93;40.66;99668.59;5017320;28;20213;-76
2021/08/06 07:18:43;;;;;;;3.05;2.85;;;;;;;28.99;40.66;99673.13;5010719;28;20230;-77
2021/08/06 07:21:12;;;;;;;7.18;3.38;;;;;;;29.00;40.65;99669.31;5017583;28;20206;-77
2021/08/06 07:23:39;;;;;;;3.13;2.83;;;;;;;28.88;40.40;99671.22;5013710;28;20218;-77
2021/08/06 07:26:06;;;;;;;3.00;2.80;;;;;;;28.72;41.21;99670.00;5017655;28;20252;-76
2021/08/06 07:28:36;;;;;;;3.00;2.60;;;;;;;28.59;41.44;99671.09;5012051;28;20222;-76
2021/08/06 07:31:02;;;;;;;2.78;2.58;;;;;;;28.46;41.52;99670.47;5016693;28;20222;-76
2021/08/06 07:33:29;;;;;;;5.53;2.78;;;;;;;28.42;41.52;99675.59;5013713;28;20663;-76
2021/08/06 07:35:55;;;;;;;3.08;2.88;;;;;;;28.44;41.78;99675.38;5013408;28;20206;-76
2021/08/06 07:38:22;;;;;;;3.75;2.72;;;;;;;28.33;41.66;99677.84;5011563;28;20585;-77
2021/08/06 07:40:48;;;;;;;3.00;2.80;;;;;;;27.86;41.66;99676.03;5013868;28;20199;-76
2021/08/06 07:43:15;;;;;;;3.50;3.20;;;;;;;27.33;43.04;99684.94;5016307;28;20650;-76
2021/08/06 07:45:46;;;;;;;3.72;2.85;;;;;;;27.18;44.01;99688.06;5013191;28;20215;-76
2021/08/06 07:48:13;;;;;;;3.28;2.97;;;;;;;27.35;44.74;99677.34;5015379;28;20293;-75
2021/08/06 07:50:40;;;;;;;5.90;3.05;;;;;;;27.78;44.49;99677.19;5014729;28;20659;-75
2021/08/06 07:53:07;;;;;;;4.90;3.17;;;;;;;28.33;42.85;99668.78;5013044;28;20211;-76
2021/08/06 07:55:34;;;;;;;3.88;2.85;;;;;;;28.75;41.83;99666.78;5013597;28;20878;-75
2021/08/06 07:58:00;;;;;;;4.00;2.78;;;;;;;29.17;41.46;99672.97;5013326;28;20207;-75
2021/08/06 08:00:27;;;;;;;2.75;2.55;;;;;;;29.59;39.28;99657.09;5014733;28;20238;-76
2021/08/06 08:02:55;;;;;;;2.50;2.30;;;;;;;29.90;38.69;99664.00;5015545;28;20325;-76
2021/08/06 08:05:23;;;;;;;3.20;2.60;;;;;;;29.96;38.61;99654.75;5014119;28;20289;-76
2021/08/06 08:07:50;;;;;;;3.15;2.85;;;;;;;29.72;39.04;99652.41;5014012;28;20733;-80
2021/08/06 08:10:16;;;;;;;2.55;2.20;;;;;;;29.31;39.47;99665.28;5015431;28;20219;-76
2021/08/06 08:12:43;;;;;;;2.63;2.42;;;;;;;28.85;39.85;99666.19;5012476;28;20226;-75
2021/08/06 08:15:10;;;;;;;2.92;2.72;;;;;;;28.58;41.60;99665.84;5012522;28;20328;-74
2021/08/06 08:17:36;;;;;;;2.80;2.60;;;;;;;28.58;41.61;99671.31;5016404;28;20203;-80
2021/08/06 08:20:06;;;;;;;2.92;2.63;;;;;;;28.77;41.69;99672.88;5010167;28;20672;-78
2021/08/06 08:22:33;;;;;;;2.40;2.20;;;;;;;29.34;40.25;99675.78;5013473;28;20209;-76
2021/08/06 08:24:59;;;;;;;2.63;2.42;;;;;;;29.98;39.01;99671.84;5015929;28;20213;-80
2021/08/06 08:27:27;;;;;;;2.90;2.63;;;;;;;30.35;37.70;99672.22;5017561;28;20206;-79
2021/08/06 08:29:54;;;;;;;2.83;2.63;;;;;;;31.05;36.87;99665.31;5018371;28;20289;-80
2021/08/06 08:32:20;;;;;;;2.30;2.10;;;;;;;31.84;36.02;99678.72;5016626;28;20226;-81
2021/08/06 08:34:47;;;;;;;3.65;2.33;;;;;;;32.00;34.36;99678.59;5014832;28;20207;-80
2021/08/06 08:37:15;;;;;;;2.70;2.50;;;;;;;31.96;33.20;99666.44;5013792;28;20197;-83
2021/08/06 08:39:42;;;;;;;2.58;2.38;;;;;;;32.00;34.66;99684.09;5015494;28;20218;-79
2021/08/06 08:42:09;;;;;;;2.80;2.53;;;;;;;31.93;33.23;99675.22;5016716;28;20198;-80
2021/08/06 08:44:37;;;;;;;2.58;2.38;;;;;;;32.12;34.48;99667.41;5011915;28;20199;-83
2021/08/06 08:47:06;;;;;;;2.30;2.10;;;;;;;32.30;34.66;99669.78;5013152;28;20298;-82
2021/08/06 08:49:34;;;;;;;3.28;2.55;;;;;;;31.75;33.68;99668.16;5013535;28;20218;-77
2021/08/06 08:52:02;;;;;;;3.20;2.70;;;;;;;30.81;34.73;99667.47;5012156;28;20226;-75
2021/08/06 08:54:30;;;;;;;2.60;2.40;;;;;;;29.85;36.74;99672.16;5011518;28;20210;-75
2021/08/06 08:56:57;;;;;;;2.67;2.28;;;;;;;29.68;37.68;99674.84;5011363;28;20302;-76
2021/08/06 08:59:24;;;;;;;2.75;2.55;;;;;;;30.06;38.70;99673.38;5017512;28;20238;-82
2021/08/06 09:01:50;;;;;;;2.30;2.10;;;;;;;30.70;37.06;99668.41;5017496;28;20226;-82
2021/08/06 09:04:22;;;;;;;2.83;2.63;;;;;;;31.52;36.60;99664.84;5018390;28;20270;-83
2021/08/06 09:06:49;;;;;;;4.75;2.30;;;;;;;32.20;34.91;99650.44;5015778;28;20297;-81
2021/08/06 09:09:23;;;;;;;3.83;2.70;;;;;;;32.53;33.65;99654.81;5016667;28;20762;-83
2021/08/06 09:12:05;;;;;;;3.55;2.25;;;;;;;33.03;33.45;99653.50;5016497;28;20276;-83
2021/08/06 09:14:35;;;;;;;2.55;2.35;;;;;;;33.46;31.81;99652.34;5017313;28;20207;-82
2021/08/06 09:17:05;;;;;;;2.25;2.05;;;;;;;33.41;30.95;99663.34;5020448;28;20282;-82
2021/08/06 09:19:36;;;;;;;2.53;2.25;;;;;;;33.30;32.09;99658.91;5017369;28;20281;-83
2021/08/06 09:22:17;;;;;;;2.40;2.20;;;;;;;33.63;31.92;99655.69;5015248;28;20369;-83
2021/08/06 09:25:07;;;;;;;2.15;2.00;;;;;;;34.22;31.58;99652.47;5014484;28;20716;-82
2021/08/06 09:27:37;;;;;;;4.60;2.60;;;;;;;34.57;29.73;99661.91;5014515;28;20210;-73
2021/08/06 09:30:07;;;;;;;2.50;2.30;;;;;;;34.43;29.50;99659.69;5018990;28;20308;-80
2021/08/06 09:32:52;;;;;;;4.20;2.63;;;;;;;33.95;29.11;99660.19;5013666;28;20201;-75
2021/08/06 09:35:20;;;;;;;3.30;2.80;;;;;;;33.50;30.80;99666.44;5014337;28;20588;-82
2021/08/06 09:37:47;;;;;;;2.30;2.10;;;;;;;33.15;32.05;99661.53;5014464;28;20695;-81
2021/08/06 09:40:17;;;;;;;3.58;2.50;;;;;;;33.12;31.48;99662.94;5015046;28;20233;-81
2021/08/06 09:42:51;;;;;;;2.80;2.45;;;;;;;32.97;31.66;99671.09;5014697;28;20238;-80
2021/08/06 09:45:21;;;;;;;2.30;2.10;;;;;;;32.78;31.94;99660.53;5015073;28;20210;-83
2021/08/06 09:47:55;;;;;;;3.25;2.40;;;;;;;32.43;31.81;99671.25;5015765;28;20199;-84
2021/08/06 09:50:23;;;;;;;2.53;2.33;;;;;;;31.95;33.10;99670.28;5014570;28;20223;-84
2021/08/06 09:52:52;;;;;;;2.60;2.17;;;;;;;31.52;34.30;99671.19;5014005;28;20221;-85
2021/08/06 09:55:21;;;;;;;2.47;2.25;;;;;;;31.64;34.35;99669.09;5015934;28;20203;-83
2021/08/06 09:57:51;;;;;;;2.63;2.15;;;;;;;31.17;34.83;99663.31;5017017;28;20213;-85
2021/08/06 10:00:20;;;;;;;2.88;1.88;;;;;;;30.53;35.18;99657.41;5013465;28;20317;-84
2021/08/06 10:02:48;;;;;;;4.30;1.98;;;;;;;29.94;37.17;99659.66;5014911;28;20229;-88
2021/08/06 10:05:16;;;;;;;2.33;2.00;;;;;;;29.90;37.83;99655.78;5016297;28;20202;-82
2021/08/06 10:07:44;;;;;;;6.20;2.88;;;;;;;29.70;37.05;99653.50;5016989;28;20207;-82
2021/08/06 10:10:14;;;;;;;2.70;2.40;;;;;;;29.29;37.87;99646.34;5015304;28;20253;-82
2021/08/06 10:12:40;;;;;;;2.25;1.92;;;;;;;29.21;38.51;99643.13;5016480;28;20649;-85
2021/08/06 10:15:10;;;;;;;2.70;1.92;;;;;;;28.90;38.46;99639.75;5016218;28;20290;-81
2021/08/06 10:17:37;;;;;;;4.70;2.20;;;;;;;28.71;39.16;99642.84;5016801;28;20576;-82
2021/08/06 10:20:06;;;;;;;2.97;2.20;;;;;;;28.55;39.58;99636.19;5014871;28;20342;-83
2021/08/06 10:22:38;;;;;;;4.05;2.20;;;;;;;28.84;39.69;99629.75;5016581;28;20310;-85
2021/08/06 10:25:08;;;;;;;2.03;1.90;;;;;;;28.80;39.72;99601.16;5016905;28;20656;-78
2021/08/06 10:27:37;;;;;;;3.33;1.83;;;;;;;28.38;40.36;99605.09;5015095;28;20191;-79
2021/08/06 10:30:07;;;;;;;2.45;2.13;;;;;;;27.81;41.40;99604.75;5015256;28;20300;-79
2021/08/06 10:32:37;;;;;;;2.17;2.00;;;;;;;27.27;42.51;99610.13;5014882;28;20194;-79
2021/08/06 10:35:17;;;;;;;2.45;2.25;;;;;;;26.79;43.64;99621.00;5014796;28;20203;-80
2021/08/06 10:38:07;;;;;;;4.03;2.33;;;;;;;26.36;44.74;99603.78;5016047;28;20195;-80
2021/08/06 10:41:15;;;;;;;4.40;2.53;;;;;;;25.95;45.61;99607.91;5016459;28;20564;-79
2021/08/06 10:44:03;;;;;;;2.00;1.90;;;;;;;25.63;46.53;99604.34;5017118;28;20196;-78
2021/08/06 10:46:54;;;;;;;3.47;2.30;;;;;;;25.40;47.06;99601.34;5015880;28;20194;-79
2021/08/06 10:49:22;;;;;;;2.25;2.05;;;;;;;25.18;47.26;99606.28;5015930;28;20230;-79
2021/08/06 10:51:49;;;;;;;2.63;2.17;;;;;;;25.01;48.28;99608.66;5017301;28;20224;-84
2021/08/06 10:54:33;;;;;;;3.80;2.33;;;;;;;24.84;48.62;99597.38;5014720;28;20227;-82
2021/08/06 10:57:30;;;;;;;2.35;2.10;;;;;;;24.72;49.53;99604.50;5016279;28;20673;-82
2021/08/06 11:00:01;;;;;;;2.92;2.53;;;;;;;24.62;49.59;99595.97;4999222;28;20227;-82
2021/08/06 11:02:51;;;;;;;3.33;2.33;;;;;;;24.58;49.85;99597.44;5017362;28;20250;-82
2021/08/06 11:05:42;;;;;;;2.25;1.90;;;;;;;24.53;50.54;99586.38;5017250;28;20206;-80
2021/08/06 11:08:57;;;;;;;2.10;2.00;;;;;;;24.52;50.74;99585.53;5010146;28;20293;-82
2021/08/06 11:11:57;;;;;;;2.83;2.08;;;;;;;24.62;51.75;99570.63;5006209;28;20585;-81
2021/08/06 11:15:02;;;;;;;2.35;2.15;;;;;;;24.70;50.81;99556.78;5007986;28;20211;-81
2021/08/06 11:17:41;;;;;;;2.53;1.90;;;;;;;24.84;51.07;99559.25;5015407;28;20240;-80
2021/08/06 11:20:20;;;;;;;2.10;1.90;;;;;;;24.92;50.17;99555.41;5020144;28;20325;-83
2021/08/06 11:22:50;;;;;;;2.17;1.98;;;;;;;24.99;50.19;99552.72;5022378;28;20264;-80
2021/08/06 11:25:22;;;;;;;2.35;1.95;;;;;;;25.01;49.23;99559.63;5020229;28;20371;-81
2021/08/06 11:27:52;;;;;;;3.60;2.08;;;;;;;24.97;49.51;99554.81;5022532;28;20191;-80
2021/08/06 11:30:23;;;;;;;1.85;1.75;;;;;;;24.95;49.36;99552.28;5014993;28;20677;-80
2021/08/06 11:32:53;;;;;;;2.13;1.98;;;;;;;24.88;49.19;99548.75;5013468;28;20212;-81
2021/08/06 11:35:21;;;;;;;3.80;2.00;;;;;;;24.86;49.46;99553.59;5013309;28;20282;-81
2021/08/06 11:37:52;;;;;;;3.33;2.00;;;;;;;24.77;49.27;99546.69;5012308;28;20203;-78